Wednesday, July 8, 2015, 2:48 AM EDT

KLKU, Louisa, Louisa County Airport/freeman Field

Location: Louisa, VA, United States Lat: 38.01
Local Time: 2:48 AM EDT ( 6:48 GMT) Lon: -77.97
Time Zone: US/Eastern Elev: 492 ft

Show me the last for .
Show Decoded

2015-07-08 02:35 METAR KLKU 080635Z AUTO 00000KT 7SM CLR 24/22 A3001 RMK AO2 =
2015-07-08 02:15 METAR KLKU 080615Z AUTO 21003KT 7SM CLR 24/22 A3002 RMK AO2 =
2015-07-08 01:35 METAR KLKU 080535Z AUTO 00000KT 7SM CLR 24/22 A3003 RMK AO2 =
2015-07-08 01:15 METAR KLKU 080515Z AUTO 00000KT 7SM CLR 24/22 A3003 RMK AO2 =
2015-07-08 00:55 METAR KLKU 080455Z AUTO 00000KT 7SM CLR 24/22 A3003 RMK AO2 =
2015-07-08 00:35 METAR KLKU 080435Z AUTO 00000KT 7SM CLR 24/22 A3004 RMK AO2 =
2015-07-08 00:15 METAR KLKU 080415Z AUTO 00000KT 7SM CLR 24/22 A3004 RMK AO2 =
2015-07-07 23:55 METAR KLKU 080355Z AUTO 17003KT 7SM CLR 24/22 A3004 RMK AO2 =
2015-07-07 23:35 METAR KLKU 080335Z AUTO 00000KT 7SM CLR 24/22 A3005 RMK AO2 =
2015-07-07 23:15 METAR KLKU 080315Z AUTO 00000KT 7SM CLR 25/22 A3004 RMK AO2 =
2015-07-07 22:35 METAR KLKU 080235Z AUTO 18003KT 10SM CLR 26/22 A3004 RMK AO2 =
2015-07-07 22:15 METAR KLKU 080215Z AUTO 00000KT 10SM CLR 25/22 A3004 RMK AO2 =
2015-07-07 21:55 METAR KLKU 080155Z AUTO 00000KT 10SM CLR 25/22 A3004 RMK AO2 =
2015-07-07 21:15 METAR KLKU 080115Z AUTO 00000KT 10SM CLR 26/22 A3003 RMK AO2 =
2015-07-07 20:55 METAR KLKU 080055Z AUTO 00000KT 10SM CLR 26/22 A3002 RMK AO2 =
2015-07-07 20:35 METAR KLKU 080035Z AUTO 00000KT 10SM CLR 27/22 A3002 RMK AO2 =
2015-07-07 20:15 METAR KLKU 080015Z AUTO 00000KT 10SM CLR 27/22 A3002 RMK AO2 =
2015-07-07 19:55 METAR KLKU 072355Z AUTO 00000KT 10SM CLR 28/22 A3001 RMK AO2 =
2015-07-07 19:35 METAR KLKU 072335Z AUTO 00000KT 10SM CLR 29/22 A3001 RMK AO2 =
2015-07-07 19:15 METAR KLKU 072315Z AUTO 20003KT 10SM CLR 29/22 A3001 RMK AO2 =
2015-07-07 18:55 METAR KLKU 072255Z AUTO 21003KT 10SM CLR 29/22 A3001 RMK AO2 =
2015-07-07 18:35 METAR KLKU 072235Z AUTO 21003KT 10SM CLR 30/22 A3002 RMK AO2 =
2015-07-07 18:15 METAR KLKU 072215Z AUTO 20005KT 10SM CLR 30/22 A3002 RMK AO2 =
2015-07-07 17:55 METAR KLKU 072155Z AUTO 21006KT 10SM CLR 31/21 A3001 RMK AO2 =
2015-07-07 17:35 METAR KLKU 072135Z AUTO 20005KT 10SM CLR 31/22 A3002 RMK AO2 =
2015-07-07 17:15 METAR KLKU 072115Z AUTO 21007KT 10SM CLR 31/21 A3002 RMK AO2 =
2015-07-07 16:55 METAR KLKU 072055Z AUTO 20007KT 10SM CLR 31/21 A3002 RMK AO2 =
2015-07-07 16:15 METAR KLKU 072015Z AUTO 21007KT 180V260 10SM CLR 31/21 A3003 RMK AO2 =
2015-07-07 15:55 METAR KLKU 071955Z AUTO 18006KT 10SM CLR 31/21 A3004 RMK AO2 =
2015-07-07 15:35 METAR KLKU 071935Z AUTO 22004KT 10SM SCT044 SCT050 31/21 A3004 RMK AO2 =
2015-07-07 15:15 METAR KLKU 071915Z AUTO 19004KT 10SM SCT050 31/21 A3005 RMK AO2 =
2015-07-07 14:55 METAR KLKU 071855Z AUTO 20006KT 10SM SCT045 31/21 A3005 RMK AO2 =
2015-07-07 14:35 METAR KLKU 071835Z AUTO 25007G14KT 10SM CLR 31/21 A3005 RMK AO2 =
2015-07-07 14:15 METAR KLKU 071815Z AUTO 22007KT 170V230 10SM SCT042 31/21 A3006 RMK AO2 =
2015-07-07 13:55 METAR KLKU 071755Z AUTO 20005KT 10SM SCT042 31/21 A3006 RMK AO2 =
2015-07-07 13:35 METAR KLKU 071735Z AUTO 21006KT 10SM SCT039 31/21 A3007 RMK AO2 =
2015-07-07 13:15 METAR KLKU 071715Z AUTO 24007KT 10SM CLR 31/21 A3007 RMK AO2 =
2015-07-07 12:55 METAR KLKU 071655Z AUTO 23007KT 10SM CLR 31/21 A3007 RMK AO2 =
2015-07-07 12:35 METAR KLKU 071635Z AUTO 24005KT 10SM CLR 30/21 A3007 RMK AO2 =
2015-07-07 12:15 METAR KLKU 071615Z AUTO 22006KT 10SM CLR 30/21 A3007 RMK AO2 =
2015-07-07 11:55 METAR KLKU 071555Z AUTO 22004KT 10SM CLR 29/21 A3008 RMK AO2 =
2015-07-07 11:35 METAR KLKU 071535Z AUTO 25003KT 10SM CLR 29/21 A3008 RMK AO2 =
2015-07-07 11:15 METAR KLKU 071515Z AUTO 00000KT 10SM CLR 29/21 A3008 RMK AO2 =
2015-07-07 10:55 METAR KLKU 071455Z AUTO 26006KT 10SM CLR 29/21 A3008 RMK AO2 =
2015-07-07 10:35 METAR KLKU 071435Z AUTO 26005KT 10SM CLR 28/21 A3008 RMK AO2 =
2015-07-07 10:15 METAR KLKU 071415Z AUTO 27006KT 10SM CLR 27/21 A3008 RMK AO2 =
2015-07-07 09:55 METAR KLKU 071355Z AUTO 27005KT 10SM SCT100 27/21 A3008 RMK AO2 =
2015-07-07 09:35 METAR KLKU 071335Z AUTO 27005KT 10SM CLR 27/21 A3008 RMK AO2 =
2015-07-07 09:15 METAR KLKU 071315Z AUTO 27004KT 10SM CLR 26/21 A3008 RMK AO2 =
2015-07-07 08:55 METAR KLKU 071255Z AUTO 25004KT 10SM CLR 24/21 A3008 RMK AO2 =
2015-07-07 08:35 METAR KLKU 071235Z AUTO 00000KT 10SM CLR 24/21 A3008 RMK AO2 =
2015-07-07 08:15 METAR KLKU 071215Z AUTO 00000KT 10SM CLR 23/21 A3009 RMK AO2 =
2015-07-07 07:55 METAR KLKU 071155Z AUTO 00000KT 10SM CLR 22/21 A3008 RMK AO2 =
2015-07-07 07:35 METAR KLKU 071135Z AUTO 26004KT 10SM CLR 22/20 A3008 RMK AO2 =
2015-07-07 07:15 METAR KLKU 071115Z AUTO 26004KT 10SM CLR 21/19 A3007 RMK AO2 =
2015-07-07 06:55 METAR KLKU 071055Z AUTO 25003KT 10SM CLR 21/19 A3007 RMK AO2 =
2015-07-07 06:35 METAR KLKU 071035Z AUTO 24003KT 7SM CLR 21/19 A3007 RMK AO2 =
2015-07-07 06:15 METAR KLKU 071015Z AUTO 24004KT 7SM CLR 20/19 A3006 RMK AO2 =
2015-07-07 05:55 METAR KLKU 070955Z AUTO 00000KT 10SM CLR 20/19 A3005 RMK AO2 =
2015-07-07 05:35 METAR KLKU 070935Z AUTO 18003KT 10SM CLR 21/19 A3004 RMK AO2 =
2015-07-07 05:15 METAR KLKU 070915Z AUTO 25003KT 10SM CLR 21/19 A3004 RMK AO2 =
2015-07-07 04:35 METAR KLKU 070835Z AUTO 23003KT 10SM CLR 21/19 A3004 RMK AO2 =
2015-07-07 04:15 METAR KLKU 070815Z AUTO 00000KT 10SM CLR 21/19 A3003 RMK AO2 =
2015-07-07 03:55 METAR KLKU 070755Z AUTO 00000KT 10SM CLR 21/19 A3004 RMK AO2 =
2015-07-07 03:35 METAR KLKU 070735Z AUTO 00000KT 10SM CLR 21/19 A3004 RMK AO2 =
2015-07-07 03:15 METAR KLKU 070715Z AUTO 00000KT 10SM CLR 21/20 A3004 RMK AO2 =
2015-07-07 02:55 METAR KLKU 070655Z AUTO 00000KT 10SM CLR 21/20 A3005 RMK AO2 =

Support USWX by starting your Amazon purchase here.